Terminal Aerodrome Forecast
Issued by NWS

Home | Current Version | Previous Version | Text Only | Print | Product List | Glossary On
Versions: 1 2 3 4 5 6 7 8 9 10 11 12 13 14 15 16
000
FTUS43 KGRR 211140
TAFLAN
TAF
KLAN 211140Z 2112/2212 18004KT 4SM BR OVC020
     FM211400 16004KT 3SM BR OVC012
     FM220000 11003KT 1 1/2SM BR OVC003
     FM220300 12005KT 1/2SM FG OVC002=

USA.gov is the U.S. government's official web portal to all federal, state and local government web resources and services.